Time;durP1;ratioP1;P1;durP2;ratioP2;P2;SDS_P1;SDS_P2;PMS_P1;PMS_P2;Temp;Humidity;BMP_temperature;BMP_pressure;BME280_temperature;BME280_humidity;BME280_pressure;Samples;Min_cycle;Max_cycle;Signal;HPM_P1;HPM_P2
2021/05/27 00:00:45;;;;;;;2.90;2.70;;;;;;;10.87;100.00;100113.84;4925892;29;20227;-77
2021/05/27 00:03:11;;;;;;;3.17;2.87;;;;;;;10.86;100.00;100110.34;4930576;29;20188;-78
2021/05/27 00:05:36;;;;;;;4.07;2.70;;;;;;;10.88;100.00;100116.28;4916368;29;20282;-77
2021/05/27 00:08:05;;;;;;;4.00;3.60;;;;;;;10.70;100.00;100124.34;4915847;29;20203;-77
2021/05/27 00:10:33;;;;;;;3.50;3.20;;;;;;;10.74;100.00;100109.09;4914970;29;20314;-77
2021/05/27 00:13:01;;;;;;;3.43;3.13;;;;;;;10.77;100.00;100109.34;4915417;29;20295;-76
2021/05/27 00:15:33;;;;;;;3.20;2.90;;;;;;;10.69;100.00;100111.84;4926384;29;20733;-76
2021/05/27 00:18:02;;;;;;;3.57;3.27;;;;;;;10.84;100.00;100108.97;4936265;29;20187;-76
2021/05/27 00:20:28;;;;;;;3.37;3.17;;;;;;;10.82;100.00;100117.44;4935898;29;20223;-76
2021/05/27 00:22:56;;;;;;;3.67;3.37;;;;;;;10.74;100.00;100115.31;4920293;29;20194;-76
2021/05/27 00:25:24;;;;;;;3.37;3.03;;;;;;;10.89;100.00;100119.81;4921013;29;20246;-77
2021/05/27 00:27:52;;;;;;;4.67;3.43;;;;;;;10.90;100.00;100116.81;4936012;29;20215;-75
2021/05/27 00:30:21;;;;;;;4.23;3.70;;;;;;;10.84;100.00;100126.09;4936010;28;20198;-76
2021/05/27 00:32:49;;;;;;;4.00;3.67;;;;;;;10.90;100.00;100118.72;4916185;29;20196;-76
2021/05/27 00:35:16;;;;;;;4.33;3.50;;;;;;;10.85;100.00;100118.75;4931455;29;20235;-75
2021/05/27 00:37:45;;;;;;;3.83;3.50;;;;;;;10.86;100.00;100117.66;4936363;29;20584;-75
2021/05/27 00:40:15;;;;;;;4.07;3.43;;;;;;;10.83;100.00;100119.03;4929079;29;20251;-76
2021/05/27 00:42:40;;;;;;;3.73;3.43;;;;;;;10.87;100.00;100119.28;4945729;28;20180;-76
2021/05/27 00:45:10;;;;;;;4.33;3.93;;;;;;;10.79;100.00;100133.50;4946409;29;20224;-76
2021/05/27 00:47:38;;;;;;;4.23;3.50;;;;;;;10.78;100.00;100123.72;4930269;29;20208;-77
2021/05/27 00:50:09;;;;;;;4.10;3.30;;;;;;;10.94;100.00;100122.47;4927754;29;20180;-75
2021/05/27 00:52:39;;;;;;;3.70;3.40;;;;;;;10.88;100.00;100126.34;4916760;29;20599;-77
2021/05/27 00:55:10;;;;;;;3.50;3.20;;;;;;;10.97;100.00;100122.72;4917839;29;20220;-75
2021/05/27 00:57:36;;;;;;;3.40;3.10;;;;;;;11.04;100.00;100125.88;4922434;29;20200;-76
2021/05/27 01:00:15;;;;;;;3.40;3.10;;;;;;;10.97;100.00;100116.44;4916306;29;20189;-75
2021/05/27 01:02:46;;;;;;;3.80;3.10;;;;;;;11.05;100.00;100132.16;4937637;29;20215;-76
2021/05/27 01:05:17;;;;;;;2.93;2.63;;;;;;;10.86;100.00;100125.81;4899802;29;20219;-75
2021/05/27 01:07:46;;;;;;;4.70;3.57;;;;;;;10.83;100.00;100121.75;4901731;29;20260;-75
2021/05/27 01:10:16;;;;;;;3.73;2.53;;;;;;;10.85;100.00;100135.06;4915136;29;20232;-77
2021/05/27 01:12:44;;;;;;;3.43;2.30;;;;;;;10.92;100.00;100128.19;4916255;29;20184;-75
2021/05/27 01:18:01;;;;;;;2.73;2.40;;;;;;;10.86;100.00;100128.50;4922992;29;20400;-76
2021/05/27 01:20:32;;;;;;;4.23;2.70;;;;;;;10.74;100.00;100130.81;4905027;28;20227;-77
2021/05/27 01:23:00;;;;;;;3.00;2.70;;;;;;;10.83;100.00;100139.97;4904400;29;20685;-77
2021/05/27 01:25:32;;;;;;;3.63;2.33;;;;;;;10.87;100.00;100133.66;4920164;29;20311;-76
2021/05/27 01:27:58;;;;;;;3.17;2.20;;;;;;;11.05;100.00;100132.16;4920239;29;20267;-77
2021/05/27 01:30:24;;;;;;;2.83;2.30;;;;;;;10.94;100.00;100131.44;4915598;28;20200;-78
2021/05/27 01:32:55;;;;;;;4.17;1.97;;;;;;;10.85;100.00;100125.00;4940254;29;20229;-76
2021/05/27 01:35:24;;;;;;;3.43;2.27;;;;;;;10.77;100.00;100127.53;4900659;29;20232;-76
2021/05/27 01:37:52;;;;;;;4.00;2.20;;;;;;;10.79;100.00;100130.78;4901053;29;20211;-76
2021/05/27 01:40:23;;;;;;;4.07;2.10;;;;;;;10.92;100.00;100130.91;4900287;29;20279;-77
2021/05/27 01:42:51;;;;;;;4.80;2.23;;;;;;;10.93;100.00;100129.81;4899840;29;20189;-76
2021/05/27 01:45:22;;;;;;;3.50;1.90;;;;;;;10.63;100.00;100129.28;4924582;29;20235;-77
2021/05/27 01:47:47;;;;;;;2.50;2.00;;;;;;;10.80;100.00;100135.09;4934748;29;20542;-76
2021/05/27 01:50:20;;;;;;;2.47;1.83;;;;;;;10.71;100.00;100139.53;4903085;29;20548;-76
2021/05/27 01:52:49;;;;;;;4.03;1.97;;;;;;;10.69;100.00;100130.06;4919112;29;20187;-76
2021/05/27 01:55:18;;;;;;;3.77;1.97;;;;;;;10.67;100.00;100130.34;4917910;29;20223;-77
2021/05/27 01:57:46;;;;;;;2.43;2.17;;;;;;;10.61;100.00;100136.91;4935806;29;20187;-76
2021/05/27 02:00:12;;;;;;;4.50;2.20;;;;;;;10.73;100.00;100136.53;4909758;28;20639;-76
2021/05/27 02:02:53;;;;;;;4.13;1.97;;;;;;;10.71;100.00;100136.81;4899039;29;20198;-76
2021/05/27 02:05:22;;;;;;;2.03;1.67;;;;;;;10.75;100.00;100138.69;4917700;29;20219;-75
2021/05/27 02:07:51;;;;;;;3.63;1.93;;;;;;;10.63;100.00;100137.44;4903876;29;20207;-76
2021/05/27 02:10:30;;;;;;;3.53;1.80;;;;;;;10.73;100.00;100140.06;4918709;28;20219;-78
2021/05/27 02:12:58;;;;;;;3.40;1.67;;;;;;;10.77;100.00;100135.69;4918341;29;20184;-77
2021/05/27 02:15:28;;;;;;;4.13;2.30;;;;;;;10.74;100.00;100131.63;4917909;29;20290;-74
2021/05/27 02:17:56;;;;;;;3.37;2.10;;;;;;;10.67;100.00;100135.75;4950624;29;20187;-77
2021/05/27 02:20:22;;;;;;;4.27;1.90;;;;;;;10.68;100.00;100134.69;4916873;29;20184;-76
2021/05/27 02:22:48;;;;;;;6.40;2.47;;;;;;;10.80;100.00;100129.66;4917083;29;20194;-76
2021/05/27 02:25:31;;;;;;;2.10;1.90;;;;;;;10.62;100.00;100138.56;4920123;29;20282;-77
2021/05/27 02:27:59;;;;;;;4.27;2.20;;;;;;;10.75;100.00;100137.88;4918073;29;20192;-77
2021/05/27 02:30:26;;;;;;;2.93;2.20;;;;;;;10.70;100.00;100135.22;4901403;29;20192;-76
2021/05/27 02:32:52;;;;;;;2.37;2.13;;;;;;;10.78;100.00;100148.97;4914259;29;20192;-76
2021/05/27 02:35:17;;;;;;;3.90;2.27;;;;;;;10.85;100.00;100143.22;4930330;29;20239;-76
2021/05/27 02:37:48;;;;;;;3.23;2.17;;;;;;;10.77;100.00;100141.13;4931272;29;20199;-77
2021/05/27 02:40:16;;;;;;;2.90;2.30;;;;;;;10.86;100.00;100150.25;4931219;29;20263;-77
2021/05/27 02:42:47;;;;;;;2.90;2.20;;;;;;;11.03;100.00;100137.06;4899230;29;20850;-76
2021/05/27 02:45:17;;;;;;;3.57;2.37;;;;;;;10.93;100.00;100148.84;4918784;29;20208;-77
2021/05/27 02:47:46;;;;;;;3.13;2.20;;;;;;;10.86;100.00;100150.25;4926545;29;20578;-76
2021/05/27 02:50:14;;;;;;;3.07;2.50;;;;;;;10.91;100.00;100159.16;4925427;29;20176;-76
2021/05/27 02:52:42;;;;;;;3.53;2.63;;;;;;;10.71;100.00;100153.09;4913900;29;20192;-77
2021/05/27 02:55:09;;;;;;;3.27;2.70;;;;;;;10.84;100.00;100152.44;4898243;29;20224;-77
2021/05/27 02:57:39;;;;;;;4.17;2.60;;;;;;;10.74;100.00;100153.34;4914859;29;20192;-77
2021/05/27 03:00:08;;;;;;;3.03;2.43;;;;;;;10.77;100.00;100146.56;4916479;29;20601;-76
2021/05/27 03:02:56;;;;;;;2.77;2.27;;;;;;;10.72;100.00;100154.75;4933720;29;20216;-77
2021/05/27 03:05:21;;;;;;;5.37;2.40;;;;;;;10.82;100.00;100143.78;4933545;29;26025;-77
2021/05/27 03:07:50;;;;;;;3.83;2.60;;;;;;;10.74;100.00;100156.06;4917979;29;20701;-78
2021/05/27 03:10:21;;;;;;;3.07;2.07;;;;;;;10.61;100.00;100155.94;4917067;28;20187;-77
2021/05/27 03:12:48;;;;;;;5.17;2.90;;;;;;;10.68;100.00;100153.69;4917837;29;20198;-76
2021/05/27 03:15:15;;;;;;;4.13;2.40;;;;;;;10.80;100.00;100154.13;4934670;29;20216;-77
2021/05/27 03:17:46;;;;;;;5.20;2.57;;;;;;;10.68;100.00;100161.00;4931879;29;20327;-78
2021/05/27 03:20:15;;;;;;;4.80;2.60;;;;;;;10.81;100.00;100158.47;4932274;28;20266;-76
2021/05/27 03:22:42;;;;;;;4.97;3.00;;;;;;;10.74;100.00;100156.06;4904623;29;20192;-76
2021/05/27 03:25:12;;;;;;;4.73;2.60;;;;;;;10.69;100.00;100149.88;4905682;29;20215;-76
2021/05/27 03:27:40;;;;;;;5.47;3.13;;;;;;;10.65;100.00;100148.03;4920977;29;20188;-76
2021/05/27 03:30:07;;;;;;;3.53;2.47;;;;;;;10.67;100.00;100157.50;4919797;29;20190;-76
2021/05/27 03:32:35;;;;;;;4.27;2.60;;;;;;;10.69;100.00;100155.31;4912797;29;20218;-76
2021/05/27 03:35:01;;;;;;;3.47;2.70;;;;;;;10.60;100.00;100156.19;4936156;29;20228;-76
2021/05/27 03:37:30;;;;;;;4.90;2.50;;;;;;;10.63;100.00;100163.78;4930781;29;20255;-77
2021/05/27 03:40:14;;;;;;;3.80;2.67;;;;;;;10.72;100.00;100156.66;4916714;29;20194;-76
2021/05/27 03:42:47;;;;;;;4.23;2.43;;;;;;;10.72;100.00;100154.75;4921706;29;20321;-77
2021/05/27 03:45:20;;;;;;;7.23;2.60;;;;;;;10.62;100.00;100146.69;4906216;29;20286;-77
2021/05/27 03:47:59;;;;;;;3.47;2.30;;;;;;;10.68;100.00;100150.16;4930648;29;20180;-76
2021/05/27 03:50:28;;;;;;;6.13;2.60;;;;;;;10.63;100.00;100151.00;4936366;28;20191;-76
2021/05/27 03:53:00;;;;;;;3.53;2.50;;;;;;;10.71;100.00;100152.31;4921082;29;20197;-77
2021/05/27 03:55:27;;;;;;;3.30;2.37;;;;;;;10.53;100.00;100167.41;4917793;29;20662;-79
2021/05/27 03:57:53;;;;;;;3.73;2.50;;;;;;;10.68;100.00;100153.69;4918092;29;20184;-77
2021/05/27 04:03:24;;;;;;;4.93;2.43;;;;;;;10.77;100.00;100160.13;4929389;29;20184;-77
2021/05/27 04:08:36;;;;;;;4.97;2.40;;;;;;;10.73;100.00;100156.34;4948388;29;20279;-76
2021/05/27 04:11:01;;;;;;;5.50;2.70;;;;;;;10.91;100.00;100158.34;4951621;28;20278;-76
2021/05/27 04:13:27;;;;;;;6.17;2.10;;;;;;;10.69;100.00;100166.16;4920152;29;20195;-77
2021/05/27 04:15:53;;;;;;;5.77;2.50;;;;;;;10.67;100.00;100162.94;4923150;29;20232;-78
2021/05/27 04:18:19;;;;;;;5.00;2.40;;;;;;;10.76;100.00;100161.22;4929070;29;20195;-76
2021/05/27 04:20:51;;;;;;;3.53;2.77;;;;;;;10.77;100.00;100166.38;4916837;29;20264;-75
2021/05/27 04:23:33;;;;;;;5.90;2.60;;;;;;;10.94;100.00;100163.22;4901227;29;20215;-76
2021/05/27 04:26:02;;;;;;;4.23;2.33;;;;;;;10.76;100.00;100166.66;4931433;29;20228;-75
2021/05/27 04:28:27;;;;;;;3.33;2.40;;;;;;;10.88;100.00;100169.81;4902208;29;20185;-75
2021/05/27 04:31:12;;;;;;;4.53;2.63;;;;;;;10.92;100.00;100168.16;4919097;29;20215;-75
2021/05/27 04:33:42;;;;;;;3.30;2.23;;;;;;;10.89;100.00;100160.56;4927709;28;20183;-76
2021/05/27 04:36:16;;;;;;;4.70;2.50;;;;;;;10.77;100.00;100176.44;4928384;29;20223;-76
2021/05/27 04:38:42;;;;;;;4.40;2.37;;;;;;;10.89;100.00;100172.22;4920132;29;20211;-74
2021/05/27 04:41:11;;;;;;;3.13;2.20;;;;;;;10.96;100.00;100182.78;4919280;29;20271;-76
2021/05/27 04:43:39;;;;;;;3.60;2.37;;;;;;;11.03;100.00;100169.66;4917692;29;20195;-76
2021/05/27 04:46:09;;;;;;;8.40;5.03;;;;;;;10.93;100.00;100176.03;4918228;29;20275;-78
2021/05/27 04:48:36;;;;;;;3.00;2.60;;;;;;;11.11;100.00;100169.03;4934501;29;20180;-77
2021/05/27 04:51:01;;;;;;;6.57;3.03;;;;;;;10.91;100.00;100182.81;4914466;29;20231;-77
2021/05/27 04:53:29;;;;;;;3.03;2.37;;;;;;;11.06;100.00;100179.94;4913381;29;20188;-77
2021/05/27 04:55:57;;;;;;;4.33;2.53;;;;;;;11.14;100.00;100174.72;4913445;29;20314;-76
2021/05/27 04:58:23;;;;;;;3.13;2.13;;;;;;;10.95;100.00;100186.56;4946258;28;20196;-77
2021/05/27 05:00:53;;;;;;;3.77;2.20;;;;;;;11.08;100.00;100185.91;4917150;29;20235;-76
2021/05/27 05:03:21;;;;;;;4.37;2.20;;;;;;;10.97;100.00;100178.94;4913504;29;20198;-76
2021/05/27 05:05:49;;;;;;;3.10;2.20;;;;;;;10.85;100.00;100192.91;4913235;29;20232;-76
2021/05/27 05:08:19;;;;;;;3.67;2.17;;;;;;;10.89;100.00;100185.81;4930336;29;20184;-75
2021/05/27 05:10:45;;;;;;;3.53;2.30;;;;;;;10.96;100.00;100182.78;4929174;28;20239;-76
2021/05/27 05:13:10;;;;;;;3.43;2.20;;;;;;;11.13;100.00;100183.16;4913715;29;20674;-76
2021/05/27 05:15:37;;;;;;;3.37;2.27;;;;;;;11.10;100.00;100183.72;4923415;29;20248;-77
2021/05/27 05:18:07;;;;;;;3.80;2.20;;;;;;;11.03;100.00;100194.13;4914121;29;20714;-77
2021/05/27 05:20:34;;;;;;;3.20;2.37;;;;;;;10.93;100.00;100202.34;4926486;29;20235;-77
2021/05/27 05:23:05;;;;;;;5.67;2.50;;;;;;;11.09;100.00;100191.06;4917371;29;20275;-76
2021/05/27 05:25:36;;;;;;;3.73;2.20;;;;;;;11.13;100.00;100207.59;4933510;29;20626;-75
2021/05/27 05:28:02;;;;;;;4.47;3.07;;;;;;;11.03;100.00;100194.94;4925635;28;20187;-76
2021/05/27 05:30:28;;;;;;;3.87;2.87;;;;;;;10.98;100.00;100200.41;4933313;29;20713;-79
2021/05/27 05:32:54;;;;;;;5.13;2.57;;;;;;;11.23;100.00;100198.25;4925696;29;20188;-76
2021/05/27 05:35:23;;;;;;;3.33;2.30;;;;;;;10.99;100.00;100203.94;4931548;29;20223;-77
2021/05/27 05:37:52;;;;;;;4.17;2.30;;;;;;;10.93;100.00;100210.50;4892217;29;1165850;-77
2021/05/27 05:40:19;;;;;;;4.87;2.77;;;;;;;10.99;100.00;100209.34;4932257;29;20255;-76
2021/05/27 05:42:45;;;;;;;4.50;2.50;;;;;;;11.20;100.00;100212.41;4932132;29;20195;-76
2021/05/27 05:45:14;;;;;;;3.37;2.50;;;;;;;11.42;100.00;100203.78;4917264;29;20294;-76
2021/05/27 05:47:44;;;;;;;3.30;2.10;;;;;;;11.59;100.00;100210.38;4917193;29;20184;-75
2021/05/27 05:50:44;;;;;;;4.43;2.13;;;;;;;11.57;100.00;100207.16;4931543;29;20223;-76
2021/05/27 05:53:00;;;;;;;4.07;2.27;;;;;;;11.61;100.00;100209.03;4918975;29;20191;-77
2021/05/27 05:55:28;;;;;;;5.87;2.87;;;;;;;11.67;100.00;100217.94;4932657;29;20232;-75
2021/05/27 05:58:02;;;;;;;2.80;1.90;;;;;;;11.43;100.00;100214.38;4917728;29;20897;-76
2021/05/27 06:00:34;;;;;;;4.07;1.90;;;;;;;11.45;100.00;100219.56;4924911;28;20194;-77
2021/05/27 06:03:05;;;;;;;3.00;1.80;;;;;;;11.67;100.00;100223.38;4933088;29;20180;-77
2021/05/27 06:05:51;;;;;;;2.67;1.80;;;;;;;11.61;100.00;100227.22;4905236;29;20242;-76
2021/05/27 06:08:24;;;;;;;3.37;1.80;;;;;;;11.82;100.00;100228.63;4918729;29;20191;-77
2021/05/27 06:10:49;;;;;;;3.93;2.13;;;;;;;11.69;100.00;100232.06;4899853;29;20278;-76
2021/05/27 06:13:17;;;;;;;3.33;2.00;;;;;;;11.52;100.00;100226.28;4915832;29;20585;-76
2021/05/27 06:15:46;;;;;;;3.30;2.00;;;;;;;11.56;100.00;100230.84;4899876;29;20310;-76
2021/05/27 06:18:16;;;;;;;5.07;2.60;;;;;;;11.45;100.00;100233.94;4947956;29;20235;-75
2021/05/27 06:20:56;;;;;;;2.63;2.20;;;;;;;11.26;100.00;100238.47;4947845;28;20650;-76
2021/05/27 06:23:29;;;;;;;2.33;2.13;;;;;;;11.30;100.00;100239.53;4932497;29;20198;-75
2021/05/27 06:25:57;;;;;;;3.80;2.33;;;;;;;11.49;100.00;100248.59;4932274;29;20242;-76
2021/05/27 06:28:22;;;;;;;3.30;2.27;;;;;;;11.67;100.00;100245.13;4916217;29;20176;-76
2021/05/27 06:30:50;;;;;;;4.77;2.23;;;;;;;11.55;100.00;100252.88;4916092;29;20257;-76
2021/05/27 06:33:19;;;;;;;5.20;2.10;;;;;;;11.62;100.00;100237.03;4912242;29;20235;-77
2021/05/27 06:35:45;;;;;;;3.00;2.23;;;;;;;11.60;100.00;100255.56;4912459;29;20703;-78
2021/05/27 06:38:16;;;;;;;4.60;2.27;;;;;;;11.50;100.00;100265.72;4913113;29;20667;-77
2021/05/27 06:40:41;;;;;;;5.47;2.20;;;;;;;11.56;100.00;100259.94;4928465;29;20296;-79
2021/05/27 06:43:07;;;;;;;4.27;2.40;;;;;;;11.32;100.00;100255.56;4896677;29;20216;-76
2021/05/27 06:45:36;;;;;;;2.83;1.80;;;;;;;11.54;100.00;100267.59;4927605;29;20223;-77
2021/05/27 06:48:05;;;;;;;3.13;1.70;;;;;;;11.63;100.00;100257.69;4929263;29;20180;-78
2021/05/27 06:50:39;;;;;;;4.20;1.93;;;;;;;11.64;100.00;100267.47;4913364;29;20224;-77
2021/05/27 06:53:15;;;;;;;4.70;2.17;;;;;;;11.56;100.00;100268.09;4930526;29;20195;-76
2021/05/27 06:55:46;;;;;;;2.10;1.63;;;;;;;11.43;100.00;100260.59;4916459;29;20784;-77
2021/05/27 06:58:12;;;;;;;4.70;2.27;;;;;;;11.32;100.00;100269.94;4926622;29;20279;-77
2021/05/27 07:00:39;;;;;;;3.00;1.93;;;;;;;11.55;100.00;100271.91;4950331;28;20297;-76
2021/05/27 07:03:07;;;;;;;2.27;1.77;;;;;;;11.51;100.00;100281.75;4903808;29;20235;-77
2021/05/27 07:05:35;;;;;;;3.43;1.87;;;;;;;11.67;100.00;100284.03;4935094;29;20238;-76
2021/05/27 07:08:07;;;;;;;4.20;1.90;;;;;;;11.73;100.00;100287.50;4920085;29;20596;-76
2021/05/27 07:10:39;;;;;;;3.40;1.87;;;;;;;11.73;100.00;100292.94;4935217;29;20294;-77
2021/05/27 07:13:07;;;;;;;3.47;1.80;;;;;;;12.01;100.00;100290.16;4950108;29;20192;-77
2021/05/27 07:15:32;;;;;;;4.23;1.60;;;;;;;12.01;100.00;100280.09;4919419;29;20608;-76
2021/05/27 07:17:58;;;;;;;2.43;1.60;;;;;;;12.20;100.00;100288.31;4935306;29;20199;-77
2021/05/27 07:20:27;;;;;;;2.13;1.40;;;;;;;12.08;100.00;100280.53;4934401;29;20194;-77
2021/05/27 07:22:55;;;;;;;3.37;1.50;;;;;;;11.97;100.00;100289.94;4934156;29;20775;-77
2021/05/27 07:25:21;;;;;;;5.13;1.60;;;;;;;12.08;100.00;100291.44;4934902;29;20267;-78
2021/05/27 07:27:52;;;;;;;4.13;1.60;;;;;;;11.93;100.00;100285.38;4919509;29;20179;-76
2021/05/27 07:30:26;;;;;;;3.83;1.67;;;;;;;12.03;100.00;100296.97;4923847;29;20203;-78
2021/05/27 07:32:51;;;;;;;3.67;1.40;;;;;;;12.13;100.00;100305.00;4930375;29;20184;-76
2021/05/27 07:35:17;;;;;;;2.73;1.50;;;;;;;12.28;100.00;100295.84;4899549;29;20224;-76
2021/05/27 07:37:43;;;;;;;5.53;1.70;;;;;;;12.08;100.00;100307.75;4899969;29;20212;-77
2021/05/27 07:40:11;;;;;;;4.37;1.80;;;;;;;11.93;100.00;100309.88;4931259;29;20185;-76
2021/05/27 07:42:39;;;;;;;3.27;1.40;;;;;;;11.81;100.00;100311.34;4899415;29;20188;-76
2021/05/27 07:45:07;;;;;;;3.27;1.40;;;;;;;11.81;100.00;100322.25;4915186;29;20196;-77
2021/05/27 07:47:35;;;;;;;3.03;1.40;;;;;;;11.56;100.00;100314.34;4900190;29;20192;-77
2021/05/27 07:50:04;;;;;;;6.00;1.73;;;;;;;11.59;100.00;100316.47;4900478;29;20296;-77
2021/05/27 07:52:30;;;;;;;3.40;1.60;;;;;;;11.55;100.00;100318.16;4898854;29;20239;-78
2021/05/27 07:55:03;;;;;;;5.67;1.70;;;;;;;11.67;100.00;100310.44;4915337;29;20217;-76
2021/05/27 07:57:33;;;;;;;2.47;1.60;;;;;;;11.71;100.00;100319.63;4900296;29;20714;-77
2021/05/27 08:00:01;;;;;;;4.93;2.10;;;;;;;11.66;100.00;100314.25;4928727;29;20929;-76
2021/05/27 08:02:27;;;;;;;4.70;1.73;;;;;;;12.08;100.00;100315.94;4932492;28;20226;-76
2021/05/27 08:05:00;;;;;;;3.60;1.73;;;;;;;11.97;100.00;100321.78;4903901;29;20215;-78
2021/05/27 08:07:31;;;;;;;2.40;1.40;;;;;;;11.58;100.00;100317.59;4934191;29;20743;-76
2021/05/27 08:10:01;;;;;;;3.07;1.73;;;;;;;11.50;100.00;100337.25;4934696;29;20192;-77
2021/05/27 08:12:29;;;;;;;6.50;2.07;;;;;;;11.55;100.00;100332.56;4933282;29;20246;-77
2021/05/27 08:14:55;;;;;;;3.70;1.47;;;;;;;11.79;100.00;100335.31;4934278;29;20220;-78
2021/05/27 08:17:20;;;;;;;4.10;1.37;;;;;;;11.79;100.00;100330.69;4934107;29;20725;-76
2021/05/27 08:19:49;;;;;;;4.47;1.50;;;;;;;11.78;100.00;100336.44;4934224;29;20557;-78
2021/05/27 08:22:16;;;;;;;3.90;1.43;;;;;;;11.99;100.00;100342.16;4917082;29;20239;-78
2021/05/27 08:24:42;;;;;;;3.93;1.50;;;;;;;12.31;100.00;100339.63;4934152;29;20298;-78
2021/05/27 08:27:10;;;;;;;3.53;1.37;;;;;;;12.11;100.00;100334.44;4933712;29;20236;-78
2021/05/27 08:29:36;;;;;;;4.27;1.50;;;;;;;12.12;100.00;100336.03;4934584;29;20709;-79
2021/05/27 08:32:02;;;;;;;4.87;1.40;;;;;;;12.22;100.00;100346.03;4913581;29;20212;-77
2021/05/27 08:34:32;;;;;;;3.97;1.93;;;;;;;12.23;100.00;100342.97;4899651;29;20209;-79
2021/05/27 08:36:58;;;;;;;4.13;1.40;;;;;;;12.38;100.00;100340.06;4884138;29;20964;-77
2021/05/27 08:39:23;;;;;;;3.83;1.43;;;;;;;12.11;100.00;100334.44;4883344;29;20202;-76
2021/05/27 08:41:49;;;;;;;2.73;1.40;;;;;;;12.15;100.00;100354.53;4897970;29;20773;-78
2021/05/27 08:44:19;;;;;;;2.53;1.30;;;;;;;12.06;100.00;100353.53;4884188;29;20216;-76
2021/05/27 08:46:48;;;;;;;4.47;1.50;;;;;;;12.16;100.00;100356.16;4899184;29;20606;-78
2021/05/27 08:49:19;;;;;;;2.40;1.10;;;;;;;12.21;100.00;100361.53;4914646;29;20814;-77
2021/05/27 08:51:47;;;;;;;2.03;1.10;;;;;;;12.28;100.00;100360.06;4898163;29;20224;-78
2021/05/27 08:54:12;;;;;;;3.80;1.20;;;;;;;12.48;100.00;100362.56;4900818;29;20219;-78
2021/05/27 08:56:40;;;;;;;3.37;1.40;;;;;;;12.60;100.00;100362.97;4909089;29;20227;-76
2021/05/27 08:59:06;;;;;;;3.13;1.30;;;;;;;12.75;100.00;100369.00;4933852;29;20205;-76
2021/05/27 09:01:39;;;;;;;3.97;1.30;;;;;;;12.79;100.00;100370.06;4923531;29;20219;-76
2021/05/27 09:04:19;;;;;;;2.47;1.40;;;;;;;12.83;100.00;100364.84;4953997;28;20180;-77
2021/05/27 09:06:51;;;;;;;2.23;1.10;;;;;;;13.11;100.00;100368.25;4911081;29;20294;-77
2021/05/27 09:09:19;;;;;;;2.70;1.10;;;;;;;13.11;100.00;100373.69;4918489;29;20215;-75
2021/05/27 09:11:48;;;;;;;4.40;1.30;;;;;;;12.94;100.00;100372.59;4901212;29;20334;-77
2021/05/27 09:14:16;;;;;;;2.43;1.27;;;;;;;13.12;100.00;100374.50;4913027;29;20227;-77
2021/05/27 09:16:58;;;;;;;3.43;1.10;;;;;;;12.98;100.00;100383.72;4933952;29;20231;-77
2021/05/27 09:19:24;;;;;;;2.07;1.10;;;;;;;12.74;100.00;100389.19;4935300;29;20191;-76
2021/05/27 09:21:50;;;;;;;1.87;1.20;;;;;;;12.61;100.00;100391.00;4948122;29;20427;-76
2021/05/27 09:24:15;;;;;;;2.60;1.00;;;;;;;12.34;100.00;100401.69;4902058;29;20673;-76
2021/05/27 09:26:57;;;;;;;2.63;1.20;;;;;;;12.45;100.00;100395.00;4933874;29;20227;-77
2021/05/27 09:29:25;;;;;;;2.87;0.90;;;;;;;12.61;100.00;100404.63;4917617;29;20263;-77
2021/05/27 09:32:08;;;;;;;1.50;1.27;;;;;;;12.76;100.00;100400.63;4932152;29;20230;-77
2021/05/27 09:34:40;;;;;;;3.17;1.07;;;;;;;13.18;100.00;100406.03;4932881;29;20729;-77
2021/05/27 09:37:19;;;;;;;4.43;1.23;;;;;;;13.16;100.00;100411.00;4932836;29;20258;-78
2021/05/27 09:39:47;;;;;;;2.80;1.10;;;;;;;13.18;100.00;100417.75;4933253;29;20200;-79
2021/05/27 09:42:12;;;;;;;2.83;1.00;;;;;;;13.22;100.00;100423.44;4947808;28;20276;-78
2021/05/27 09:44:40;;;;;;;2.03;1.20;;;;;;;13.35;100.00;100428.16;4932890;29;20212;-77
2021/05/27 09:47:08;;;;;;;2.83;1.13;;;;;;;13.54;100.00;100416.13;4932361;29;20230;-78
2021/05/27 09:49:34;;;;;;;3.77;1.30;;;;;;;13.59;100.00;100424.25;4933304;29;20186;-78
2021/05/27 09:52:18;;;;;;;3.20;1.10;;;;;;;13.72;100.00;100424.28;4931055;29;20231;-78
2021/05/27 09:55:08;;;;;;;2.67;1.10;;;;;;;14.15;100.00;100417.56;4917663;29;20215;-76
2021/05/27 09:57:36;;;;;;;2.83;1.10;;;;;;;13.94;100.00;100427.19;4917123;29;20298;-77
2021/05/27 10:00:03;;;;;;;2.73;1.00;;;;;;;13.64;100.00;100432.34;4932599;29;20218;-76
2021/05/27 10:02:33;;;;;;;1.60;1.00;;;;;;;13.91;100.00;100433.25;4933169;28;20219;-77
2021/05/27 10:04:58;;;;;;;1.87;0.90;;;;;;;13.87;100.00;100432.22;4932595;29;20216;-77
2021/05/27 10:07:41;;;;;;;2.87;1.00;;;;;;;13.82;100.00;100432.28;4932147;29;20234;-78
2021/05/27 10:10:08;;;;;;;4.83;1.10;;;;;;;13.64;100.00;100438.59;4916709;29;20681;-78
2021/05/27 10:12:41;;;;;;;2.13;0.87;;;;;;;13.47;100.00;100440.25;4899968;29;20616;-76
2021/05/27 10:15:17;;;;;;;2.33;1.10;;;;;;;13.23;100.00;100452.34;4932238;29;20222;-76
2021/05/27 10:17:43;;;;;;;2.90;1.10;;;;;;;13.06;100.00;100446.59;4933294;29;20191;-77
2021/05/27 10:20:15;;;;;;;2.57;1.00;;;;;;;13.27;100.00;100454.19;4932369;28;20622;-76
2021/05/27 10:22:43;;;;;;;2.07;0.97;;;;;;;13.24;100.00;100468.44;4931614;29;20335;-76
2021/05/27 10:25:12;;;;;;;3.07;1.10;;;;;;;13.28;100.00;100471.38;4932192;29;20207;-77
2021/05/27 10:27:39;;;;;;;2.80;1.10;;;;;;;13.39;100.00;100453.72;4917266;29;20219;-77
2021/05/27 10:30:08;;;;;;;1.80;1.10;;;;;;;13.37;100.00;100466.88;4916779;29;20183;-77
2021/05/27 10:32:39;;;;;;;2.20;1.23;;;;;;;13.44;100.00;100478.22;4915228;29;20220;-77
2021/05/27 10:35:05;;;;;;;1.63;1.00;;;;;;;13.06;100.00;100467.56;4916091;29;20602;-77
2021/05/27 10:37:34;;;;;;;3.10;1.00;;;;;;;13.02;100.00;100472.81;4932024;29;20219;-78
2021/05/27 10:40:19;;;;;;;4.60;1.37;;;;;;;12.99;100.00;100472.59;4932316;29;20222;-76
2021/05/27 10:43:18;;;;;;;3.73;1.20;;;;;;;13.24;100.00;100470.31;4946079;29;20243;-78
2021/05/27 10:45:59;;;;;;;2.07;1.23;;;;;;;12.73;100.00;100488.41;4933023;29;20298;-77
2021/05/27 10:48:26;;;;;;;2.33;1.20;;;;;;;12.75;100.00;100488.94;4932691;29;20175;-79
2021/05/27 10:51:02;;;;;;;3.30;1.40;;;;;;;12.59;100.00;100494.03;4931952;28;20243;-78
2021/05/27 10:53:34;;;;;;;5.37;3.43;;;;;;;12.61;100.00;100497.28;4931957;29;20199;-78
2021/05/27 10:56:00;;;;;;;3.33;1.60;;;;;;;12.52;100.00;100509.91;4931832;29;20255;-77
2021/05/27 10:58:47;;;;;;;3.20;1.50;;;;;;;12.64;100.00;100507.63;4901605;29;20665;-77
2021/05/27 11:01:13;;;;;;;3.07;1.40;;;;;;;12.89;100.00;100508.16;4939872;28;20223;-77
2021/05/27 11:03:44;;;;;;;4.17;1.70;;;;;;;13.34;100.00;100505.66;4927256;29;20240;-77
2021/05/27 11:06:35;;;;;;;3.97;1.70;;;;;;;13.10;100.00;100502.16;4912288;29;20232;-77
2021/05/27 11:09:09;;;;;;;3.07;1.50;;;;;;;13.49;100.00;100512.50;4913258;29;20197;-78
2021/05/27 11:11:43;;;;;;;4.10;1.60;;;;;;;13.45;100.00;100506.03;4912595;29;20241;-77
2021/05/27 11:14:23;;;;;;;3.30;1.50;;;;;;;13.75;100.00;100505.56;4928255;29;20200;-77
2021/05/27 11:17:20;;;;;;;3.73;1.60;;;;;;;13.87;100.00;100509.47;4915767;29;20812;-77
2021/05/27 11:20:15;;;;;;;2.97;1.30;;;;;;;13.68;100.00;100515.25;4913035;29;20833;-78
2021/05/27 11:22:50;;;;;;;2.37;1.20;;;;;;;14.00;100.00;100521.56;4913372;29;20224;-76
2021/05/27 11:25:16;;;;;;;1.63;1.10;;;;;;;13.83;100.00;100529.50;4900237;29;20283;-81
2021/05/27 11:28:03;;;;;;;1.80;1.10;;;;;;;14.10;100.00;100526.91;4933532;29;20188;-78
2021/05/27 11:30:37;;;;;;;1.83;1.10;;;;;;;14.12;100.00;100532.88;4912476;29;20234;-76
2021/05/27 11:33:15;;;;;;;1.47;1.00;;;;;;;13.73;100.00;100542.47;4944088;28;20201;-76
2021/05/27 11:35:44;;;;;;;2.77;1.07;;;;;;;13.51;100.00;100534.84;4912426;29;20227;-76
2021/05/27 11:38:22;;;;;;;2.53;0.90;;;;;;;14.05;100.00;100535.19;4916236;29;20278;-77